sensor_id;sensor_type;location;lat;lon;timestamp;P1;durP1;ratioP1;P2;durP2;ratioP2
75732;SDS011;64435;47.424;19.400;2022-12-29T00:02:11;35.27;;;14.67;;
75732;SDS011;64435;47.424;19.400;2022-12-29T00:04:37;29.37;;;13.33;;
75732;SDS011;64435;47.424;19.400;2022-12-29T00:07:02;32.90;;;14.45;;
75732;SDS011;64435;47.424;19.400;2022-12-29T00:09:29;32.33;;;13.37;;
75732;SDS011;64435;47.424;19.400;2022-12-29T00:11:55;28.48;;;13.48;;
75732;SDS011;64435;47.424;19.400;2022-12-29T00:14:20;33.87;;;15.53;;
75732;SDS011;64435;47.424;19.400;2022-12-29T00:17:04;29.50;;;14.80;;
75732;SDS011;64435;47.424;19.400;2022-12-29T00:19:30;34.20;;;16.70;;
75732;SDS011;64435;47.424;19.400;2022-12-29T00:22:14;34.10;;;15.88;;
75732;SDS011;64435;47.424;19.400;2022-12-29T00:24:59;36.10;;;16.40;;
75732;SDS011;64435;47.424;19.400;2022-12-29T00:27:43;34.90;;;16.48;;
75732;SDS011;64435;47.424;19.400;2022-12-29T00:30:27;33.05;;;14.65;;
75732;SDS011;64435;47.424;19.400;2022-12-29T00:33:15;32.27;;;15.77;;
75732;SDS011;64435;47.424;19.400;2022-12-29T00:36:16;36.03;;;16.23;;
75732;SDS011;64435;47.424;19.400;2022-12-29T00:38:47;32.38;;;15.48;;
75732;SDS011;64435;47.424;19.400;2022-12-29T00:41:37;31.67;;;15.82;;
75732;SDS011;64435;47.424;19.400;2022-12-29T00:44:20;36.22;;;16.00;;
75732;SDS011;64435;47.424;19.400;2022-12-29T00:46:46;30.93;;;14.17;;
75732;SDS011;64435;47.424;19.400;2022-12-29T00:49:12;31.80;;;14.63;;
75732;SDS011;64435;47.424;19.400;2022-12-29T00:54:30;32.72;;;14.07;;
75732;SDS011;64435;47.424;19.400;2022-12-29T00:57:00;32.33;;;14.63;;
75732;SDS011;64435;47.424;19.400;2022-12-29T00:59:25;33.08;;;14.95;;
75732;SDS011;64435;47.424;19.400;2022-12-29T01:01:51;31.87;;;14.30;;
75732;SDS011;64435;47.424;19.400;2022-12-29T01:04:17;31.10;;;14.73;;
75732;SDS011;64435;47.424;19.400;2022-12-29T01:06:43;33.83;;;14.87;;
75732;SDS011;64435;47.424;19.400;2022-12-29T01:09:09;30.80;;;14.83;;
75732;SDS011;64435;47.424;19.400;2022-12-29T01:11:53;34.45;;;14.40;;
75732;SDS011;64435;47.424;19.400;2022-12-29T01:14:19;29.47;;;14.70;;
75732;SDS011;64435;47.424;19.400;2022-12-29T01:16:45;33.78;;;14.05;;
75732;SDS011;64435;47.424;19.400;2022-12-29T01:19:11;24.00;;;12.45;;
75732;SDS011;64435;47.424;19.400;2022-12-29T01:21:38;35.17;;;14.23;;
75732;SDS011;64435;47.424;19.400;2022-12-29T01:24:03;30.63;;;14.00;;
75732;SDS011;64435;47.424;19.400;2022-12-29T01:26:29;33.57;;;13.67;;
75732;SDS011;64435;47.424;19.400;2022-12-29T01:28:54;28.40;;;13.07;;
75732;SDS011;64435;47.424;19.400;2022-12-29T01:31:19;34.87;;;14.63;;
75732;SDS011;64435;47.424;19.400;2022-12-29T01:33:45;28.53;;;13.67;;
75732;SDS011;64435;47.424;19.400;2022-12-29T01:36:12;27.40;;;13.90;;
75732;SDS011;64435;47.424;19.400;2022-12-29T01:38:39;34.20;;;14.23;;
75732;SDS011;64435;47.424;19.400;2022-12-29T01:41:05;27.98;;;13.52;;
75732;SDS011;64435;47.424;19.400;2022-12-29T01:43:48;27.35;;;13.13;;
75732;SDS011;64435;47.424;19.400;2022-12-29T01:48:53;28.33;;;12.75;;
75732;SDS011;64435;47.424;19.400;2022-12-29T01:51:21;28.08;;;12.55;;
75732;SDS011;64435;47.424;19.400;2022-12-29T01:53:48;26.02;;;13.20;;
75732;SDS011;64435;47.424;19.400;2022-12-29T01:56:15;29.47;;;14.13;;
75732;SDS011;64435;47.424;19.400;2022-12-29T01:58:43;28.65;;;14.63;;
75732;SDS011;64435;47.424;19.400;2022-12-29T02:01:10;27.65;;;14.05;;
75732;SDS011;64435;47.424;19.400;2022-12-29T02:03:36;32.57;;;14.20;;
75732;SDS011;64435;47.424;19.400;2022-12-29T02:06:03;31.95;;;15.27;;
75732;SDS011;64435;47.424;19.400;2022-12-29T02:08:33;36.85;;;15.10;;
75732;SDS011;64435;47.424;19.400;2022-12-29T02:10:59;33.57;;;15.67;;
75732;SDS011;64435;47.424;19.400;2022-12-29T02:13:26;33.72;;;15.43;;
75732;SDS011;64435;47.424;19.400;2022-12-29T02:21:41;30.85;;;15.55;;
75732;SDS011;64435;47.424;19.400;2022-12-29T02:30:07;33.40;;;14.35;;
75732;SDS011;64435;47.424;19.400;2022-12-29T02:35:37;37.95;;;16.60;;
75732;SDS011;64435;47.424;19.400;2022-12-29T02:40:55;34.70;;;16.33;;
75732;SDS011;64435;47.424;19.400;2022-12-29T02:43:27;39.67;;;16.80;;
75732;SDS011;64435;47.424;19.400;2022-12-29T02:46:05;33.63;;;15.60;;
75732;SDS011;64435;47.424;19.400;2022-12-29T02:49:00;38.42;;;15.73;;
75732;SDS011;64435;47.424;19.400;2022-12-29T02:51:31;40.00;;;18.10;;
75732;SDS011;64435;47.424;19.400;2022-12-29T02:54:00;48.78;;;16.77;;
75732;SDS011;64435;47.424;19.400;2022-12-29T02:56:45;42.22;;;17.35;;
75732;SDS011;64435;47.424;19.400;2022-12-29T02:59:10;40.90;;;16.93;;
75732;SDS011;64435;47.424;19.400;2022-12-29T03:16:34;37.03;;;14.50;;
75732;SDS011;64435;47.424;19.400;2022-12-29T03:19:02;46.37;;;16.70;;
75732;SDS011;64435;47.424;19.400;2022-12-29T03:21:38;37.88;;;15.82;;
75732;SDS011;64435;47.424;19.400;2022-12-29T03:24:31;36.58;;;14.63;;
75732;SDS011;64435;47.424;19.400;2022-12-29T03:26:59;43.45;;;14.85;;
75732;SDS011;64435;47.424;19.400;2022-12-29T03:29:27;39.10;;;16.08;;
75732;SDS011;64435;47.424;19.400;2022-12-29T03:31:53;32.13;;;15.33;;
75732;SDS011;64435;47.424;19.400;2022-12-29T03:34:20;43.17;;;16.02;;
75732;SDS011;64435;47.424;19.400;2022-12-29T03:37:08;46.83;;;17.20;;
75732;SDS011;64435;47.424;19.400;2022-12-29T03:39:33;42.50;;;16.17;;
75732;SDS011;64435;47.424;19.400;2022-12-29T03:41:59;56.77;;;14.97;;
75732;SDS011;64435;47.424;19.400;2022-12-29T03:44:39;43.25;;;16.33;;
75732;SDS011;64435;47.424;19.400;2022-12-29T03:47:09;66.45;;;16.85;;
75732;SDS011;64435;47.424;19.400;2022-12-29T03:49:35;51.00;;;16.43;;
75732;SDS011;64435;47.424;19.400;2022-12-29T03:52:01;54.70;;;17.83;;
75732;SDS011;64435;47.424;19.400;2022-12-29T03:54:26;41.97;;;16.17;;
75732;SDS011;64435;47.424;19.400;2022-12-29T03:56:51;44.33;;;16.30;;
75732;SDS011;64435;47.424;19.400;2022-12-29T03:59:17;49.23;;;17.03;;
75732;SDS011;64435;47.424;19.400;2022-12-29T04:01:42;36.05;;;15.68;;
75732;SDS011;64435;47.424;19.400;2022-12-29T04:04:08;38.20;;;15.83;;
75732;SDS011;64435;47.424;19.400;2022-12-29T04:06:33;51.83;;;17.17;;
75732;SDS011;64435;47.424;19.400;2022-12-29T04:08:59;42.20;;;15.68;;
75732;SDS011;64435;47.424;19.400;2022-12-29T04:11:24;41.90;;;15.57;;
75732;SDS011;64435;47.424;19.400;2022-12-29T04:13:50;39.63;;;14.90;;
75732;SDS011;64435;47.424;19.400;2022-12-29T04:16:15;45.42;;;15.90;;
75732;SDS011;64435;47.424;19.400;2022-12-29T04:18:41;34.27;;;15.27;;
75732;SDS011;64435;47.424;19.400;2022-12-29T04:21:06;33.03;;;14.17;;
75732;SDS011;64435;47.424;19.400;2022-12-29T04:23:36;35.78;;;14.95;;
75732;SDS011;64435;47.424;19.400;2022-12-29T04:26:02;46.53;;;15.33;;
75732;SDS011;64435;47.424;19.400;2022-12-29T04:28:28;46.35;;;16.77;;
75732;SDS011;64435;47.424;19.400;2022-12-29T04:30:54;38.50;;;16.17;;
75732;SDS011;64435;47.424;19.400;2022-12-29T04:33:19;36.40;;;15.77;;
75732;SDS011;64435;47.424;19.400;2022-12-29T04:35:45;50.67;;;16.00;;
75732;SDS011;64435;47.424;19.400;2022-12-29T04:38:11;46.73;;;15.63;;
75732;SDS011;64435;47.424;19.400;2022-12-29T04:40:38;38.93;;;14.80;;
75732;SDS011;64435;47.424;19.400;2022-12-29T04:43:04;34.67;;;15.73;;
75732;SDS011;64435;47.424;19.400;2022-12-29T04:45:30;40.75;;;16.05;;
75732;SDS011;64435;47.424;19.400;2022-12-29T04:47:55;38.13;;;15.77;;
75732;SDS011;64435;47.424;19.400;2022-12-29T04:50:21;34.87;;;15.03;;
75732;SDS011;64435;47.424;19.400;2022-12-29T04:52:46;30.57;;;13.27;;
75732;SDS011;64435;47.424;19.400;2022-12-29T04:55:11;44.60;;;16.53;;
75732;SDS011;64435;47.424;19.400;2022-12-29T04:57:39;39.22;;;15.30;;
75732;SDS011;64435;47.424;19.400;2022-12-29T05:00:05;37.80;;;16.03;;
75732;SDS011;64435;47.424;19.400;2022-12-29T05:02:31;47.33;;;16.55;;
75732;SDS011;64435;47.424;19.400;2022-12-29T05:04:56;47.65;;;15.73;;
75732;SDS011;64435;47.424;19.400;2022-12-29T05:07:22;42.87;;;17.40;;
75732;SDS011;64435;47.424;19.400;2022-12-29T05:09:47;40.90;;;17.10;;
75732;SDS011;64435;47.424;19.400;2022-12-29T05:12:13;41.23;;;16.63;;
75732;SDS011;64435;47.424;19.400;2022-12-29T05:14:38;39.40;;;15.57;;
75732;SDS011;64435;47.424;19.400;2022-12-29T05:17:03;41.37;;;16.02;;
75732;SDS011;64435;47.424;19.400;2022-12-29T05:19:29;40.73;;;15.97;;
75732;SDS011;64435;47.424;19.400;2022-12-29T05:21:54;37.30;;;15.13;;
75732;SDS011;64435;47.424;19.400;2022-12-29T05:24:20;40.70;;;17.47;;
75732;SDS011;64435;47.424;19.400;2022-12-29T05:26:45;38.80;;;16.40;;
75732;SDS011;64435;47.424;19.400;2022-12-29T05:29:10;39.72;;;16.12;;
75732;SDS011;64435;47.424;19.400;2022-12-29T05:31:36;42.33;;;16.00;;
75732;SDS011;64435;47.424;19.400;2022-12-29T05:34:01;36.97;;;16.00;;
75732;SDS011;64435;47.424;19.400;2022-12-29T05:36:27;41.67;;;16.20;;
75732;SDS011;64435;47.424;19.400;2022-12-29T05:38:52;35.87;;;15.53;;
75732;SDS011;64435;47.424;19.400;2022-12-29T05:41:18;36.13;;;15.90;;
75732;SDS011;64435;47.424;19.400;2022-12-29T05:43:44;42.58;;;17.70;;
75732;SDS011;64435;47.424;19.400;2022-12-29T05:46:09;34.27;;;14.70;;
75732;SDS011;64435;47.424;19.400;2022-12-29T05:48:34;37.40;;;15.83;;
75732;SDS011;64435;47.424;19.400;2022-12-29T05:51:00;39.30;;;16.95;;
75732;SDS011;64435;47.424;19.400;2022-12-29T05:53:25;38.90;;;16.17;;
75732;SDS011;64435;47.424;19.400;2022-12-29T05:55:53;35.57;;;14.73;;
75732;SDS011;64435;47.424;19.400;2022-12-29T05:58:18;35.30;;;16.08;;
75732;SDS011;64435;47.424;19.400;2022-12-29T06:00:44;40.10;;;16.07;;
75732;SDS011;64435;47.424;19.400;2022-12-29T06:03:09;38.73;;;16.33;;
75732;SDS011;64435;47.424;19.400;2022-12-29T06:05:35;32.17;;;15.13;;
75732;SDS011;64435;47.424;19.400;2022-12-29T06:08:00;34.93;;;15.87;;
75732;SDS011;64435;47.424;19.400;2022-12-29T06:10:26;37.33;;;16.77;;
75732;SDS011;64435;47.424;19.400;2022-12-29T06:12:51;32.80;;;16.47;;
75732;SDS011;64435;47.424;19.400;2022-12-29T06:15:16;35.40;;;15.70;;
75732;SDS011;64435;47.424;19.400;2022-12-29T06:17:42;33.15;;;15.73;;
75732;SDS011;64435;47.424;19.400;2022-12-29T06:20:08;38.23;;;16.27;;
75732;SDS011;64435;47.424;19.400;2022-12-29T06:22:34;30.15;;;15.10;;
75732;SDS011;64435;47.424;19.400;2022-12-29T06:25:00;32.20;;;15.20;;
75732;SDS011;64435;47.424;19.400;2022-12-29T06:27:26;33.20;;;15.65;;
75732;SDS011;64435;47.424;19.400;2022-12-29T06:29:52;36.37;;;15.27;;
75732;SDS011;64435;47.424;19.400;2022-12-29T06:32:17;36.87;;;15.60;;
75732;SDS011;64435;47.424;19.400;2022-12-29T06:34:45;39.17;;;15.73;;
75732;SDS011;64435;47.424;19.400;2022-12-29T06:37:11;34.33;;;14.50;;
75732;SDS011;64435;47.424;19.400;2022-12-29T06:39:36;31.33;;;14.67;;
75732;SDS011;64435;47.424;19.400;2022-12-29T06:42:02;33.97;;;14.60;;
75732;SDS011;64435;47.424;19.400;2022-12-29T06:44:28;32.60;;;15.18;;
75732;SDS011;64435;47.424;19.400;2022-12-29T06:46:53;29.53;;;14.90;;
75732;SDS011;64435;47.424;19.400;2022-12-29T06:49:19;32.13;;;15.00;;
75732;SDS011;64435;47.424;19.400;2022-12-29T06:51:44;32.57;;;14.77;;
75732;SDS011;64435;47.424;19.400;2022-12-29T06:54:10;31.37;;;15.82;;
75732;SDS011;64435;47.424;19.400;2022-12-29T06:56:36;34.43;;;15.33;;
75732;SDS011;64435;47.424;19.400;2022-12-29T06:59:01;39.00;;;15.97;;
75732;SDS011;64435;47.424;19.400;2022-12-29T07:01:27;29.87;;;15.02;;
75732;SDS011;64435;47.424;19.400;2022-12-29T07:03:52;36.03;;;15.70;;
75732;SDS011;64435;47.424;19.400;2022-12-29T07:06:18;39.63;;;16.43;;
75732;SDS011;64435;47.424;19.400;2022-12-29T07:08:43;33.47;;;15.50;;
75732;SDS011;64435;47.424;19.400;2022-12-29T07:11:08;38.03;;;15.93;;
75732;SDS011;64435;47.424;19.400;2022-12-29T07:13:34;30.87;;;14.73;;
75732;SDS011;64435;47.424;19.400;2022-12-29T07:16:04;29.87;;;15.00;;
75732;SDS011;64435;47.424;19.400;2022-12-29T07:18:31;39.43;;;17.43;;
75732;SDS011;64435;47.424;19.400;2022-12-29T07:20:56;34.25;;;16.08;;
75732;SDS011;64435;47.424;19.400;2022-12-29T07:23:21;33.13;;;15.53;;
75732;SDS011;64435;47.424;19.400;2022-12-29T07:25:47;34.43;;;16.93;;
75732;SDS011;64435;47.424;19.400;2022-12-29T07:28:12;32.60;;;16.63;;
75732;SDS011;64435;47.424;19.400;2022-12-29T07:30:38;33.90;;;16.35;;
75732;SDS011;64435;47.424;19.400;2022-12-29T07:33:03;36.20;;;15.87;;
75732;SDS011;64435;47.424;19.400;2022-12-29T07:35:29;30.53;;;15.33;;
75732;SDS011;64435;47.424;19.400;2022-12-29T07:37:54;32.87;;;16.00;;
75732;SDS011;64435;47.424;19.400;2022-12-29T07:40:20;32.83;;;14.93;;
75732;SDS011;64435;47.424;19.400;2022-12-29T07:42:45;31.63;;;15.97;;
75732;SDS011;64435;47.424;19.400;2022-12-29T07:45:10;37.83;;;16.03;;
75732;SDS011;64435;47.424;19.400;2022-12-29T07:47:36;36.50;;;16.57;;
75732;SDS011;64435;47.424;19.400;2022-12-29T07:50:01;37.03;;;17.10;;
75732;SDS011;64435;47.424;19.400;2022-12-29T07:52:27;37.33;;;17.27;;
75732;SDS011;64435;47.424;19.400;2022-12-29T07:54:52;43.00;;;17.20;;
75732;SDS011;64435;47.424;19.400;2022-12-29T07:57:18;35.30;;;16.73;;
75732;SDS011;64435;47.424;19.400;2022-12-29T07:59:43;35.97;;;16.57;;
75732;SDS011;64435;47.424;19.400;2022-12-29T08:02:11;35.17;;;16.33;;
75732;SDS011;64435;47.424;19.400;2022-12-29T08:04:37;33.92;;;15.65;;
75732;SDS011;64435;47.424;19.400;2022-12-29T08:07:02;37.93;;;17.23;;
75732;SDS011;64435;47.424;19.400;2022-12-29T08:09:28;36.17;;;16.20;;
75732;SDS011;64435;47.424;19.400;2022-12-29T08:11:53;36.53;;;15.30;;
75732;SDS011;64435;47.424;19.400;2022-12-29T08:14:19;38.35;;;17.90;;
75732;SDS011;64435;47.424;19.400;2022-12-29T08:16:44;39.87;;;16.60;;
75732;SDS011;64435;47.424;19.400;2022-12-29T08:19:10;32.40;;;14.93;;
75732;SDS011;64435;47.424;19.400;2022-12-29T08:21:36;33.13;;;15.10;;
75732;SDS011;64435;47.424;19.400;2022-12-29T08:24:02;34.95;;;15.60;;
75732;SDS011;64435;47.424;19.400;2022-12-29T08:26:27;38.80;;;16.17;;
75732;SDS011;64435;47.424;19.400;2022-12-29T08:28:53;33.80;;;15.60;;
75732;SDS011;64435;47.424;19.400;2022-12-29T08:31:20;37.22;;;15.90;;
75732;SDS011;64435;47.424;19.400;2022-12-29T08:33:46;31.95;;;15.93;;
75732;SDS011;64435;47.424;19.400;2022-12-29T08:36:11;31.07;;;15.00;;
75732;SDS011;64435;47.424;19.400;2022-12-29T08:38:37;32.33;;;15.27;;
75732;SDS011;64435;47.424;19.400;2022-12-29T08:41:02;34.37;;;16.50;;
75732;SDS011;64435;47.424;19.400;2022-12-29T08:43:28;33.20;;;16.25;;
75732;SDS011;64435;47.424;19.400;2022-12-29T08:45:54;32.28;;;16.75;;
75732;SDS011;64435;47.424;19.400;2022-12-29T08:48:20;31.27;;;15.70;;
75732;SDS011;64435;47.424;19.400;2022-12-29T08:50:47;37.17;;;17.10;;
75732;SDS011;64435;47.424;19.400;2022-12-29T08:53:13;33.75;;;15.57;;
75732;SDS011;64435;47.424;19.400;2022-12-29T08:55:39;35.38;;;16.20;;
75732;SDS011;64435;47.424;19.400;2022-12-29T08:58:04;37.07;;;15.93;;
75732;SDS011;64435;47.424;19.400;2022-12-29T09:00:29;33.27;;;16.93;;
75732;SDS011;64435;47.424;19.400;2022-12-29T09:02:55;31.73;;;16.73;;
75732;SDS011;64435;47.424;19.400;2022-12-29T09:05:20;33.30;;;16.67;;
75732;SDS011;64435;47.424;19.400;2022-12-29T09:07:45;35.97;;;17.50;;
75732;SDS011;64435;47.424;19.400;2022-12-29T09:10:11;37.90;;;16.90;;
75732;SDS011;64435;47.424;19.400;2022-12-29T09:12:37;35.40;;;17.03;;
75732;SDS011;64435;47.424;19.400;2022-12-29T09:15:03;34.10;;;17.02;;
75732;SDS011;64435;47.424;19.400;2022-12-29T09:17:29;34.83;;;17.13;;
75732;SDS011;64435;47.424;19.400;2022-12-29T09:20:08;41.37;;;17.55;;
75732;SDS011;64435;47.424;19.400;2022-12-29T09:22:35;40.30;;;19.70;;
75732;SDS011;64435;47.424;19.400;2022-12-29T09:25:01;36.47;;;17.52;;
75732;SDS011;64435;47.424;19.400;2022-12-29T09:27:26;37.40;;;18.30;;
75732;SDS011;64435;47.424;19.400;2022-12-29T09:29:52;32.70;;;17.00;;
75732;SDS011;64435;47.424;19.400;2022-12-29T09:32:17;42.08;;;16.92;;
75732;SDS011;64435;47.424;19.400;2022-12-29T09:34:42;37.67;;;17.70;;
75732;SDS011;64435;47.424;19.400;2022-12-29T09:37:08;39.40;;;16.93;;
75732;SDS011;64435;47.424;19.400;2022-12-29T09:39:33;38.93;;;16.77;;
75732;SDS011;64435;47.424;19.400;2022-12-29T09:42:16;37.70;;;17.53;;
75732;SDS011;64435;47.424;19.400;2022-12-29T09:47:18;34.78;;;17.62;;
75732;SDS011;64435;47.424;19.400;2022-12-29T09:52:19;34.22;;;19.08;;
75732;SDS011;64435;47.424;19.400;2022-12-29T09:54:55;32.30;;;17.33;;
75732;SDS011;64435;47.424;19.400;2022-12-29T09:57:24;37.97;;;19.02;;
75732;SDS011;64435;47.424;19.400;2022-12-29T09:59:54;36.65;;;18.52;;
75732;SDS011;64435;47.424;19.400;2022-12-29T10:04:58;36.28;;;18.15;;
75732;SDS011;64435;47.424;19.400;2022-12-29T10:15:57;38.88;;;19.12;;
75732;SDS011;64435;47.424;19.400;2022-12-29T10:21:08;40.47;;;20.15;;
75732;SDS011;64435;47.424;19.400;2022-12-29T10:23:59;45.20;;;20.27;;
75732;SDS011;64435;47.424;19.400;2022-12-29T10:26:38;42.22;;;20.30;;
75732;SDS011;64435;47.424;19.400;2022-12-29T10:29:06;36.97;;;19.27;;
75732;SDS011;64435;47.424;19.400;2022-12-29T10:31:58;36.92;;;17.85;;
75732;SDS011;64435;47.424;19.400;2022-12-29T10:34:34;34.67;;;16.77;;
75732;SDS011;64435;47.424;19.400;2022-12-29T10:37:03;38.97;;;17.93;;
75732;SDS011;64435;47.424;19.400;2022-12-29T10:39:36;38.42;;;18.65;;
75732;SDS011;64435;47.424;19.400;2022-12-29T10:44:45;30.83;;;15.18;;
75732;SDS011;64435;47.424;19.400;2022-12-29T10:47:15;30.30;;;15.70;;
75732;SDS011;64435;47.424;19.400;2022-12-29T10:49:45;28.08;;;14.30;;
75732;SDS011;64435;47.424;19.400;2022-12-29T10:52:12;31.77;;;15.88;;
75732;SDS011;64435;47.424;19.400;2022-12-29T10:59:59;28.75;;;14.70;;
75732;SDS011;64435;47.424;19.400;2022-12-29T11:05:32;33.05;;;15.55;;
75732;SDS011;64435;47.424;19.400;2022-12-29T11:08:20;34.03;;;17.60;;
75732;SDS011;64435;47.424;19.400;2022-12-29T11:10:57;29.77;;;15.97;;
75732;SDS011;64435;47.424;19.400;2022-12-29T11:13:28;33.47;;;16.40;;
75732;SDS011;64435;47.424;19.400;2022-12-29T11:15:54;34.13;;;17.42;;
75732;SDS011;64435;47.424;19.400;2022-12-29T11:18:30;33.57;;;18.07;;
75732;SDS011;64435;47.424;19.400;2022-12-29T11:21:04;33.88;;;17.27;;
75732;SDS011;64435;47.424;19.400;2022-12-29T11:28:42;32.88;;;17.27;;
75732;SDS011;64435;47.424;19.400;2022-12-29T11:31:09;35.85;;;18.50;;
75732;SDS011;64435;47.424;19.400;2022-12-29T11:33:36;34.93;;;17.63;;
75732;SDS011;64435;47.424;19.400;2022-12-29T11:36:06;40.03;;;18.00;;
75732;SDS011;64435;47.424;19.400;2022-12-29T11:38:42;35.78;;;18.98;;
75732;SDS011;64435;47.424;19.400;2022-12-29T11:41:13;37.13;;;16.95;;
75732;SDS011;64435;47.424;19.400;2022-12-29T11:43:47;34.53;;;16.50;;
75732;SDS011;64435;47.424;19.400;2022-12-29T11:46:14;28.90;;;15.73;;
75732;SDS011;64435;47.424;19.400;2022-12-29T11:48:42;29.63;;;14.77;;
75732;SDS011;64435;47.424;19.400;2022-12-29T11:51:08;29.77;;;15.70;;
75732;SDS011;64435;47.424;19.400;2022-12-29T11:56:06;28.83;;;16.87;;
75732;SDS011;64435;47.424;19.400;2022-12-29T11:58:34;27.90;;;15.90;;
75732;SDS011;64435;47.424;19.400;2022-12-29T12:01:18;28.87;;;16.27;;
75732;SDS011;64435;47.424;19.400;2022-12-29T12:06:36;30.62;;;16.60;;
75732;SDS011;64435;47.424;19.400;2022-12-29T12:09:08;31.15;;;17.02;;
75732;SDS011;64435;47.424;19.400;2022-12-29T12:11:38;29.47;;;16.13;;
75732;SDS011;64435;47.424;19.400;2022-12-29T12:16:40;30.27;;;16.60;;
75732;SDS011;64435;47.424;19.400;2022-12-29T12:21:52;27.67;;;17.35;;
75732;SDS011;64435;47.424;19.400;2022-12-29T12:27:18;26.95;;;16.17;;
75732;SDS011;64435;47.424;19.400;2022-12-29T12:32:27;27.02;;;17.37;;
75732;SDS011;64435;47.424;19.400;2022-12-29T12:34:59;29.48;;;16.62;;
75732;SDS011;64435;47.424;19.400;2022-12-29T12:42:49;28.40;;;16.23;;
75732;SDS011;64435;47.424;19.400;2022-12-29T13:14:14;26.73;;;15.07;;
75732;SDS011;64435;47.424;19.400;2022-12-29T13:16:47;25.77;;;15.18;;
75732;SDS011;64435;47.424;19.400;2022-12-29T13:22:14;24.98;;;14.38;;
75732;SDS011;64435;47.424;19.400;2022-12-29T13:31:15;28.25;;;15.48;;
75732;SDS011;64435;47.424;19.400;2022-12-29T13:36:37;24.30;;;14.57;;
75732;SDS011;64435;47.424;19.400;2022-12-29T13:41:54;30.23;;;16.20;;
75732;SDS011;64435;47.424;19.400;2022-12-29T13:44:22;26.10;;;15.50;;
75732;SDS011;64435;47.424;19.400;2022-12-29T13:46:50;31.92;;;16.08;;
75732;SDS011;64435;47.424;19.400;2022-12-29T13:51:52;31.70;;;16.40;;
75732;SDS011;64435;47.424;19.400;2022-12-29T14:02:19;39.38;;;16.60;;
75732;SDS011;64435;47.424;19.400;2022-12-29T14:04:58;33.85;;;15.65;;
75732;SDS011;64435;47.424;19.400;2022-12-29T14:07:29;31.63;;;15.20;;
75732;SDS011;64435;47.424;19.400;2022-12-29T14:09:55;37.22;;;16.73;;
75732;SDS011;64435;47.424;19.400;2022-12-29T14:14:54;35.33;;;16.73;;
75732;SDS011;64435;47.424;19.400;2022-12-29T14:17:28;36.10;;;17.03;;
75732;SDS011;64435;47.424;19.400;2022-12-29T14:19:53;37.45;;;17.33;;
75732;SDS011;64435;47.424;19.400;2022-12-29T14:22:22;33.43;;;18.00;;
75732;SDS011;64435;47.424;19.400;2022-12-29T14:24:49;37.88;;;17.98;;
75732;SDS011;64435;47.424;19.400;2022-12-29T14:34:46;42.08;;;20.15;;
75732;SDS011;64435;47.424;19.400;2022-12-29T14:37:26;51.83;;;23.48;;
75732;SDS011;64435;47.424;19.400;2022-12-29T14:42:43;36.00;;;16.43;;
75732;SDS011;64435;47.424;19.400;2022-12-29T14:47:41;40.33;;;18.42;;
75732;SDS011;64435;47.424;19.400;2022-12-29T14:50:16;35.15;;;17.83;;
75732;SDS011;64435;47.424;19.400;2022-12-29T14:57:40;31.90;;;16.92;;
75732;SDS011;64435;47.424;19.400;2022-12-29T15:00:53;34.58;;;17.00;;
75732;SDS011;64435;47.424;19.400;2022-12-29T15:03:07;33.17;;;17.50;;
75732;SDS011;64435;47.424;19.400;2022-12-29T15:05:43;36.80;;;17.17;;
75732;SDS011;64435;47.424;19.400;2022-12-29T15:08:11;33.43;;;16.90;;
75732;SDS011;64435;47.424;19.400;2022-12-29T15:10:40;39.70;;;19.75;;
75732;SDS011;64435;47.424;19.400;2022-12-29T15:13:15;51.67;;;26.20;;
75732;SDS011;64435;47.424;19.400;2022-12-29T15:15:46;36.60;;;17.58;;
75732;SDS011;64435;47.424;19.400;2022-12-29T15:18:33;46.37;;;19.27;;
75732;SDS011;64435;47.424;19.400;2022-12-29T15:20:59;36.78;;;17.70;;
75732;SDS011;64435;47.424;19.400;2022-12-29T15:23:26;36.17;;;17.87;;
75732;SDS011;64435;47.424;19.400;2022-12-29T15:25:55;35.60;;;17.83;;
75732;SDS011;64435;47.424;19.400;2022-12-29T15:28:22;36.80;;;16.37;;
75732;SDS011;64435;47.424;19.400;2022-12-29T15:30:51;34.37;;;17.37;;
75732;SDS011;64435;47.424;19.400;2022-12-29T15:33:17;31.95;;;15.63;;
75732;SDS011;64435;47.424;19.400;2022-12-29T15:35:44;32.97;;;17.17;;
75732;SDS011;64435;47.424;19.400;2022-12-29T15:38:19;30.75;;;16.62;;
75732;SDS011;64435;47.424;19.400;2022-12-29T15:40:48;34.17;;;16.37;;
75732;SDS011;64435;47.424;19.400;2022-12-29T15:45:55;31.10;;;15.07;;
75732;SDS011;64435;47.424;19.400;2022-12-29T15:48:22;35.93;;;17.67;;
75732;SDS011;64435;47.424;19.400;2022-12-29T15:50:48;42.70;;;20.08;;
75732;SDS011;64435;47.424;19.400;2022-12-29T15:53:18;66.32;;;28.05;;
75732;SDS011;64435;47.424;19.400;2022-12-29T15:55:59;45.93;;;21.30;;
75732;SDS011;64435;47.424;19.400;2022-12-29T15:58:27;40.72;;;20.70;;
75732;SDS011;64435;47.424;19.400;2022-12-29T16:00:58;40.97;;;20.45;;
75732;SDS011;64435;47.424;19.400;2022-12-29T16:03:25;52.47;;;25.55;;
75732;SDS011;64435;47.424;19.400;2022-12-29T16:05:56;38.50;;;19.27;;
75732;SDS011;64435;47.424;19.400;2022-12-29T16:08:36;48.10;;;25.73;;
75732;SDS011;64435;47.424;19.400;2022-12-29T16:11:04;40.20;;;19.23;;
75732;SDS011;64435;47.424;19.400;2022-12-29T16:13:51;41.90;;;20.17;;
75732;SDS011;64435;47.424;19.400;2022-12-29T16:16:19;42.72;;;20.17;;
75732;SDS011;64435;47.424;19.400;2022-12-29T16:18:46;32.10;;;16.98;;
75732;SDS011;64435;47.424;19.400;2022-12-29T16:21:16;36.33;;;17.80;;
75732;SDS011;64435;47.424;19.400;2022-12-29T16:23:48;38.47;;;17.95;;
75732;SDS011;64435;47.424;19.400;2022-12-29T16:26:16;37.83;;;18.53;;
75732;SDS011;64435;47.424;19.400;2022-12-29T16:28:43;36.75;;;19.02;;
75732;SDS011;64435;47.424;19.400;2022-12-29T16:34:21;45.12;;;21.80;;
75732;SDS011;64435;47.424;19.400;2022-12-29T16:36:56;40.27;;;19.33;;
75732;SDS011;64435;47.424;19.400;2022-12-29T16:39:40;38.08;;;19.02;;
75732;SDS011;64435;47.424;19.400;2022-12-29T16:42:54;41.87;;;20.50;;
75732;SDS011;64435;47.424;19.400;2022-12-29T16:45:00;41.70;;;21.08;;
75732;SDS011;64435;47.424;19.400;2022-12-29T16:47:35;47.90;;;23.02;;
75732;SDS011;64435;47.424;19.400;2022-12-29T16:50:09;43.73;;;21.77;;
75732;SDS011;64435;47.424;19.400;2022-12-29T16:52:36;45.50;;;20.60;;
75732;SDS011;64435;47.424;19.400;2022-12-29T16:55:02;39.10;;;20.83;;
75732;SDS011;64435;47.424;19.400;2022-12-29T16:57:29;47.47;;;22.77;;
75732;SDS011;64435;47.424;19.400;2022-12-29T17:00:00;55.85;;;24.37;;
75732;SDS011;64435;47.424;19.400;2022-12-29T17:02:29;80.12;;;35.30;;
75732;SDS011;64435;47.424;19.400;2022-12-29T17:04:56;59.03;;;26.87;;
75732;SDS011;64435;47.424;19.400;2022-12-29T17:07:25;48.20;;;22.73;;
75732;SDS011;64435;47.424;19.400;2022-12-29T17:09:52;41.63;;;20.90;;
75732;SDS011;64435;47.424;19.400;2022-12-29T17:12:24;55.08;;;29.77;;
75732;SDS011;64435;47.424;19.400;2022-12-29T17:14:52;45.00;;;22.00;;